createdAt,value
2018-06-24T00:02:21.074Z,101458.71
2018-06-24T00:04:50.203Z,101460.55
2018-06-24T00:07:20.093Z,101458.31
2018-06-24T00:09:48.996Z,101458.93
2018-06-24T00:12:18.500Z,101450.27
2018-06-24T00:14:48.512Z,101454.29
2018-06-24T00:17:18.024Z,101446.75
2018-06-24T00:19:47.726Z,101447.72
2018-06-24T00:22:17.993Z,101438.11
2018-06-24T00:24:47.187Z,101441.19
2018-06-24T00:27:17.139Z,101440.84
2018-06-24T00:29:47.083Z,101445.32
2018-06-24T00:32:16.597Z,101442.80
2018-06-24T00:34:45.495Z,101440.61
2018-06-24T00:37:14.454Z,101443.53
2018-06-24T00:39:43.186Z,101442.70
2018-06-24T00:42:12.106Z,101435.20
2018-06-24T00:44:42.978Z,101434.03
2018-06-24T00:47:11.560Z,101435.08
2018-06-24T00:49:40.747Z,101429.09
2018-06-24T00:52:09.986Z,101426.42
2018-06-24T00:54:38.645Z,101434.70
2018-06-24T00:57:07.558Z,101428.34
2018-06-24T00:59:47.356Z,101431.36
2018-06-24T01:02:16.978Z,101423.83
2018-06-24T01:04:46.238Z,101423.28
2018-06-24T01:07:15.513Z,101423.73
2018-06-24T01:09:45.033Z,101428.22
2018-06-24T01:12:14.911Z,101432.23
2018-06-24T01:14:43.949Z,101433.03
2018-06-24T01:17:13.351Z,101432.03
2018-06-24T01:19:44.146Z,101433.03
2018-06-24T01:22:13.684Z,101431.02
2018-06-24T01:24:43.594Z,101433.74
2018-06-24T01:27:12.266Z,101431.91
2018-06-24T01:29:40.977Z,101423.86
2018-06-24T01:32:09.642Z,101427.09
2018-06-24T01:34:40.752Z,101428.56
2018-06-24T01:37:10.749Z,101433.11
2018-06-24T01:39:39.826Z,101420.02
2018-06-24T01:42:09.816Z,101424.38
2018-06-24T01:44:39.731Z,101419.68
2018-06-24T01:47:09.522Z,101417.84
2018-06-24T01:49:38.166Z,101417.33
2018-06-24T01:52:07.414Z,101413.98
2018-06-24T01:54:36.809Z,101419.55
2018-06-24T01:57:06.941Z,101413.66
2018-06-24T01:59:38.082Z,101411.47
2018-06-24T02:02:07.991Z,101416.46
2018-06-24T02:04:36.774Z,101407.58
2018-06-24T02:07:06.686Z,101408.47
2018-06-24T02:09:36.220Z,101410.25
2018-06-24T02:12:04.783Z,101406.53
2018-06-24T02:14:33.959Z,101410.70
2018-06-24T02:17:04.078Z,101409.54
2018-06-24T02:19:33.933Z,101409.20
2018-06-24T02:22:03.449Z,101408.48
2018-06-24T02:24:33.686Z,101405.67
2018-06-24T02:27:03.577Z,101408.48
2018-06-24T02:29:32.195Z,101402.66
2018-06-24T02:32:01.582Z,101404.48
2018-06-24T02:34:31.432Z,101401.77
2018-06-24T02:37:00.931Z,101401.14
2018-06-24T02:39:30.233Z,101401.13
2018-06-24T02:41:59.534Z,101404.47
2018-06-24T02:44:28.321Z,101398.98
2018-06-24T02:46:59.421Z,101395.09
2018-06-24T02:49:28.199Z,101392.80
2018-06-24T02:51:57.381Z,101394.47
2018-06-24T02:54:26.856Z,101394.18
2018-06-24T02:56:56.049Z,101394.73
2018-06-24T02:59:25.591Z,101391.05
2018-06-24T03:01:54.504Z,101393.73
2018-06-24T03:04:23.563Z,101398.30
2018-06-24T03:06:52.167Z,101400.93
2018-06-24T03:09:20.796Z,101393.84
2018-06-24T03:11:49.356Z,101397.58
2018-06-24T03:14:17.950Z,101399.88
2018-06-24T03:16:47.205Z,101400.59
2018-06-24T03:19:16.388Z,101398.59
2018-06-24T03:21:45.045Z,101397.25
2018-06-24T03:24:13.681Z,101398.04
2018-06-24T03:26:42.557Z,101401.04
2018-06-24T03:29:11.191Z,101390.83
2018-06-24T03:31:40.557Z,101395.97
2018-06-24T03:34:09.658Z,101400.16
2018-06-24T03:36:38.264Z,101392.80
2018-06-24T03:39:09.753Z,101399.81
2018-06-24T03:41:38.378Z,101395.45
2018-06-24T03:44:07.409Z,101398.63
2018-06-24T03:46:36.255Z,101399.11
2018-06-24T03:49:04.900Z,101393.45
2018-06-24T03:51:33.505Z,101393.13
2018-06-24T03:54:02.131Z,101399.83
2018-06-24T03:56:31.138Z,101398.31
2018-06-24T03:59:00.091Z,101399.31
2018-06-24T04:01:28.966Z,101393.77
2018-06-24T04:03:58.374Z,101398.58
2018-06-24T04:06:27.000Z,101400.91
2018-06-24T04:08:55.578Z,101398.45
2018-06-24T04:11:24.578Z,101395.95
2018-06-24T04:13:53.199Z,101403.94
2018-06-24T04:16:22.068Z,101399.07
2018-06-24T04:18:50.974Z,101394.56
2018-06-24T04:21:19.588Z,101399.08
2018-06-24T04:23:48.505Z,101395.34
2018-06-24T04:26:17.108Z,101399.36
2018-06-24T04:28:45.966Z,101396.78
2018-06-24T04:31:14.569Z,101398.95
2018-06-24T04:33:43.162Z,101404.15
2018-06-24T04:36:12.041Z,101401.62
2018-06-24T04:38:40.948Z,101406.66
2018-06-24T04:41:11.465Z,101398.95
2018-06-24T04:43:40.102Z,101402.13
2018-06-24T04:46:09.305Z,101395.93
2018-06-24T04:48:39.577Z,101398.61
2018-06-24T04:51:09.381Z,101396.22
2018-06-24T04:53:37.962Z,101402.91
2018-06-24T04:56:06.883Z,101396.56
2018-06-24T04:58:35.487Z,101397.20
2018-06-24T05:01:04.149Z,101396.88
2018-06-24T05:03:32.793Z,101401.58
2018-06-24T05:06:01.414Z,101400.91
2018-06-24T05:08:30.028Z,101397.45
2018-06-24T05:10:58.720Z,101395.73
2018-06-24T05:13:27.606Z,101400.08
2018-06-24T05:15:56.252Z,101395.42
2018-06-24T05:18:25.211Z,101393.05
2018-06-24T05:20:54.050Z,101390.37
2018-06-24T05:23:23.409Z,101392.55
2018-06-24T05:25:52.638Z,101394.62
2018-06-24T05:28:21.902Z,101390.25
2018-06-24T05:30:50.846Z,101395.39
2018-06-24T05:33:19.509Z,101394.72
2018-06-24T05:35:48.481Z,101388.75
2018-06-24T05:38:17.089Z,101392.05
2018-06-24T05:40:45.964Z,101392.28
2018-06-24T05:43:15.542Z,101391.07
2018-06-24T05:45:44.134Z,101392.89
2018-06-24T05:48:14.277Z,101397.73
2018-06-24T05:50:44.398Z,101401.20
2018-06-24T05:53:14.469Z,101399.34
2018-06-24T05:55:43.421Z,101400.63
2018-06-24T05:58:15.126Z,101404.94
2018-06-24T06:00:46.005Z,101400.90
2018-06-24T06:03:16.694Z,101402.17
2018-06-24T06:05:45.530Z,101403.45
2018-06-24T06:08:14.328Z,101395.34
2018-06-24T06:10:45.518Z,101393.64
2018-06-24T06:13:14.735Z,101405.18
2018-06-24T06:15:43.908Z,101407.13
2018-06-24T06:18:12.607Z,101404.09
2018-06-24T06:20:41.306Z,101409.02
2018-06-24T06:23:09.965Z,101404.15
2018-06-24T06:25:38.553Z,101414.63
2018-06-24T06:28:07.222Z,101407.59
2018-06-24T06:30:35.801Z,101413.07
2018-06-24T06:33:06.385Z,101413.59
2018-06-24T06:35:35.122Z,101415.92
2018-06-24T06:38:06.111Z,101417.59
2018-06-24T06:40:36.010Z,101415.68
2018-06-24T06:43:05.405Z,101418.80
2018-06-24T06:45:35.161Z,101420.61
2018-06-24T06:48:03.743Z,101421.50
2018-06-24T06:50:33.004Z,101419.58
2018-06-24T06:53:01.670Z,101414.48
2018-06-24T06:55:30.291Z,101424.87
2018-06-24T06:57:58.873Z,101423.42
2018-06-24T07:00:27.478Z,101414.62
2018-06-24T07:02:56.185Z,101426.31
2018-06-24T07:05:25.167Z,101420.27
2018-06-24T07:07:53.766Z,101419.55
2018-06-24T07:10:23.344Z,101417.07
2018-06-24T07:12:52.523Z,101427.57
2018-06-24T07:15:21.950Z,101429.14
2018-06-24T07:17:50.546Z,101432.78
2018-06-24T07:20:19.340Z,101448.17
2018-06-24T07:22:48.128Z,101443.56
2018-06-24T07:25:16.813Z,101435.52
2018-06-24T07:27:45.597Z,101433.42
2018-06-24T07:30:14.549Z,101431.42
2018-06-24T07:32:43.804Z,101435.16
2018-06-24T07:35:12.869Z,101435.28
2018-06-24T07:37:41.640Z,101441.72
2018-06-24T07:40:10.852Z,101437.05
2018-06-24T07:42:39.674Z,101436.20
2018-06-24T07:45:08.388Z,101439.05
2018-06-24T07:47:37.423Z,101436.70
2018-06-24T07:50:06.105Z,101436.58
2018-06-24T07:52:34.730Z,101433.41
2018-06-24T07:55:03.522Z,101436.42
2018-06-24T07:57:32.215Z,101431.79
2018-06-24T08:00:01.001Z,101428.23
2018-06-24T08:02:30.042Z,101427.48
2018-06-24T08:04:59.115Z,101425.42
2018-06-24T08:07:27.787Z,101438.62
2018-06-24T08:09:56.409Z,101437.42
2018-06-24T08:12:25.777Z,101439.39
2018-06-24T08:14:55.538Z,101440.67
2018-06-24T08:17:24.938Z,101441.28
2018-06-24T08:19:54.049Z,101445.42
2018-06-24T08:22:22.698Z,101445.59
2018-06-24T08:24:51.313Z,101444.70
2018-06-24T08:27:20.610Z,101450.28
2018-06-24T08:29:49.607Z,101447.59
2018-06-24T08:32:18.251Z,101453.36
2018-06-24T08:34:47.180Z,101459.89
2018-06-24T08:37:16.104Z,101451.66
2018-06-24T08:39:45.021Z,101453.79
2018-06-24T08:42:13.614Z,101454.01
2018-06-24T08:44:42.348Z,101457.13
2018-06-24T08:47:11.005Z,101458.89
2018-06-24T08:49:40.322Z,101457.55
2018-06-24T08:52:10.086Z,101463.11
2018-06-24T08:54:39.144Z,101471.11
2018-06-24T08:57:09.028Z,101465.02
2018-06-24T08:59:39.773Z,101464.93
2018-06-24T09:02:08.448Z,101465.34
2018-06-24T09:04:37.066Z,101465.19
2018-06-24T09:07:05.990Z,101468.30
2018-06-24T09:09:34.724Z,101468.84
2018-06-24T09:12:03.684Z,101467.03
2018-06-24T09:14:32.643Z,101465.28
2018-06-24T09:17:01.723Z,101463.05
2018-06-24T09:19:30.952Z,101460.25
2018-06-24T09:21:59.872Z,101457.58
2018-06-24T09:24:28.845Z,101464.69
2018-06-24T09:26:58.599Z,101462.20
2018-06-24T09:29:28.128Z,101464.52
2018-06-24T09:31:57.066Z,101470.31
2018-06-24T09:34:26.134Z,101469.73
2018-06-24T09:36:54.794Z,101458.09
2018-06-24T09:39:23.647Z,101459.80
2018-06-24T09:41:52.800Z,101462.03
2018-06-24T09:44:22.149Z,101457.47
2018-06-24T09:46:50.741Z,101460.90
2018-06-24T09:49:19.475Z,101455.18
2018-06-24T09:51:49.287Z,101456.45
2018-06-24T09:54:17.901Z,101457.17
2018-06-24T09:56:46.830Z,101462.72
2018-06-24T09:59:15.740Z,101468.50
2018-06-24T10:01:44.400Z,101463.80
2018-06-24T10:04:13.200Z,101454.84
2018-06-24T10:06:41.868Z,101458.05
2018-06-24T10:09:11.582Z,101465.97
2018-06-24T10:11:40.972Z,101459.23
2018-06-24T10:14:09.909Z,101468.74
2018-06-24T10:16:38.536Z,101462.95
2018-06-24T10:19:07.215Z,101465.76
2018-06-24T10:21:35.825Z,101466.80
2018-06-24T10:24:04.453Z,101472.79
2018-06-24T10:26:33.065Z,101465.97
2018-06-24T10:29:02.003Z,101463.87
2018-06-24T10:31:30.677Z,101460.98
2018-06-24T10:33:59.380Z,101463.55
2018-06-24T10:36:28.274Z,101464.30
2018-06-24T10:38:57.350Z,101466.73
2018-06-24T10:41:26.973Z,101465.25
2018-06-24T10:43:56.504Z,101460.75
2018-06-24T10:46:26.376Z,101461.77
2018-06-24T10:48:54.989Z,101453.30
2018-06-24T10:51:23.634Z,101452.47
2018-06-24T10:53:52.372Z,101450.61
2018-06-24T10:56:22.617Z,101453.94
2018-06-24T10:58:52.275Z,101455.92
2018-06-24T11:01:20.946Z,101454.88
2018-06-24T11:03:50.102Z,101457.80
2018-06-24T11:06:18.783Z,101453.88
2018-06-24T11:08:47.401Z,101451.49
2018-06-24T11:11:17.434Z,101448.52
2018-06-24T11:13:46.912Z,101449.96
2018-06-24T11:16:15.838Z,101447.73
2018-06-24T11:18:44.797Z,101449.72
2018-06-24T11:21:14.383Z,101450.06
2018-06-24T11:23:42.490Z,101457.45
2018-06-24T11:26:11.421Z,101453.13
2018-06-24T11:28:40.160Z,101449.51
2018-06-24T11:31:09.427Z,101462.28
2018-06-24T11:33:38.397Z,101462.43
2018-06-24T11:36:07.352Z,101457.83
2018-06-24T11:38:36.789Z,101457.95
2018-06-24T11:41:12.043Z,101455.42
2018-06-24T11:43:40.649Z,101461.20
2018-06-24T11:46:09.346Z,101457.80
2018-06-24T11:48:38.019Z,101450.42
2018-06-24T11:51:06.682Z,101457.27
2018-06-24T11:53:35.591Z,101453.62
2018-06-24T11:56:04.578Z,101462.66
2018-06-24T11:58:33.594Z,101457.50
2018-06-24T12:01:02.691Z,101451.34
2018-06-24T12:03:31.729Z,101456.05
2018-06-24T12:06:00.602Z,101454.02
2018-06-24T12:08:29.180Z,101451.74
2018-06-24T12:10:58.069Z,101450.08
2018-06-24T12:13:26.965Z,101446.65
2018-06-24T12:15:55.657Z,101445.95
2018-06-24T12:18:24.492Z,101451.14
2018-06-24T12:20:53.446Z,101448.91
2018-06-24T12:23:22.296Z,101448.36
2018-06-24T12:25:50.980Z,101452.72
2018-06-24T12:28:19.606Z,101452.03
2018-06-24T12:30:48.882Z,101448.70
2018-06-24T12:33:17.945Z,101453.47
2018-06-24T12:35:46.906Z,101448.78
2018-06-24T12:38:16.145Z,101439.26
2018-06-24T12:40:44.804Z,101442.78
2018-06-24T12:43:13.604Z,101445.88
2018-06-24T12:45:42.552Z,101450.49
2018-06-24T12:48:11.737Z,101444.59
2018-06-24T12:50:40.389Z,101443.84
2018-06-24T12:53:09.008Z,101449.79
2018-06-24T12:55:38.657Z,101440.02
2018-06-24T12:58:07.333Z,101441.73
2018-06-24T13:00:36.628Z,101448.64
2018-06-24T13:03:04.647Z,101437.97
2018-06-24T13:05:33.404Z,101434.98
2018-06-24T13:08:02.289Z,101440.70
2018-06-24T13:10:30.948Z,101432.75
2018-06-24T13:12:59.853Z,101438.84
2018-06-24T13:15:28.464Z,101431.97
2018-06-24T13:17:57.070Z,101427.78
2018-06-24T13:20:25.695Z,101432.17
2018-06-24T13:22:54.345Z,101433.97
2018-06-24T13:25:23.047Z,101437.36
2018-06-24T13:27:52.085Z,101436.85
2018-06-24T13:30:20.770Z,101438.02
2018-06-24T13:32:49.452Z,101439.16
2018-06-24T13:35:18.780Z,101436.64
2018-06-24T13:37:47.485Z,101436.57
2018-06-24T13:40:16.149Z,101435.19
2018-06-24T13:42:44.768Z,101436.13
2018-06-24T13:45:13.403Z,101442.85
2018-06-24T13:47:42.224Z,101437.98
2018-06-24T13:50:10.997Z,101438.14
2018-06-24T13:52:39.594Z,101440.11
2018-06-24T13:55:08.259Z,101430.50
2018-06-24T13:57:36.903Z,101426.47
2018-06-24T14:00:06.389Z,101434.16
2018-06-24T14:02:34.993Z,101428.50
2018-06-24T14:05:03.861Z,101429.63
2018-06-24T14:07:32.510Z,101430.09
2018-06-24T14:10:01.151Z,101424.98
2018-06-24T14:12:30.095Z,101426.98
2018-06-24T14:14:59.054Z,101424.48
2018-06-24T14:17:28.353Z,101429.53
2018-06-24T14:19:57.507Z,101420.77
2018-06-24T14:22:26.401Z,101422.47
2018-06-24T14:24:55.079Z,101417.84
2018-06-24T14:27:24.070Z,101418.78
2018-06-24T14:29:53.009Z,101411.08
2018-06-24T14:32:21.975Z,101418.30
2018-06-24T14:34:50.994Z,101410.34
2018-06-24T14:37:19.702Z,101410.02
2018-06-24T14:39:48.304Z,101414.95
2018-06-24T14:42:16.951Z,101413.94
2018-06-24T14:44:45.589Z,101414.80
2018-06-24T14:47:14.520Z,101414.05
2018-06-24T14:49:43.785Z,101418.00
2018-06-24T14:52:12.433Z,101417.91
2018-06-24T14:54:41.364Z,101416.70
2018-06-24T14:57:10.029Z,101410.57
2018-06-24T14:59:38.956Z,101410.57
2018-06-24T15:02:08.165Z,101410.71
2018-06-24T15:04:37.053Z,101404.53
2018-06-24T15:07:06.322Z,101405.12
2018-06-24T15:09:35.589Z,101408.54
2018-06-24T15:12:05.066Z,101409.39
2018-06-24T15:14:33.759Z,101404.14
2018-06-24T15:17:02.398Z,101397.73
2018-06-24T15:19:31.516Z,101399.56
2018-06-24T15:22:00.163Z,101397.92
2018-06-24T15:24:29.066Z,101398.45
2018-06-24T15:26:57.694Z,101393.32
2018-06-24T15:29:26.644Z,101393.55
2018-06-24T15:31:56.001Z,101389.28
2018-06-24T15:34:24.873Z,101390.80
2018-06-24T15:36:53.507Z,101388.97
2018-06-24T15:39:22.237Z,101389.20
2018-06-24T15:41:51.164Z,101385.87
2018-06-24T15:44:20.176Z,101396.64
2018-06-24T15:46:49.524Z,101398.91
2018-06-24T15:49:18.936Z,101401.06
2018-06-24T15:51:48.140Z,101400.22
2018-06-24T15:54:17.188Z,101404.77
2018-06-24T15:56:46.224Z,101401.38
2018-06-24T15:59:14.819Z,101401.11
2018-06-24T16:01:43.536Z,101402.72
2018-06-24T16:04:12.639Z,101397.02
2018-06-24T16:06:41.589Z,101400.30
2018-06-24T16:09:12.389Z,101402.61
2018-06-24T16:11:41.525Z,101404.03
2018-06-24T16:14:10.637Z,101402.04
2018-06-24T16:16:46.185Z,101402.08
2018-06-24T16:19:16.606Z,101399.11
2018-06-24T16:21:46.242Z,101405.92
2018-06-24T16:24:15.318Z,101407.41
2018-06-24T16:26:44.806Z,101406.82
2018-06-24T16:29:13.706Z,101405.16
2018-06-24T16:31:42.473Z,101407.84
2018-06-24T16:34:11.311Z,101404.97
2018-06-24T16:36:40.090Z,101409.63
2018-06-24T16:39:10.829Z,101407.27
2018-06-24T16:41:39.697Z,101409.63
2018-06-24T16:44:08.650Z,101408.28
2018-06-24T16:46:37.364Z,101402.26
2018-06-24T16:49:06.667Z,101401.68
2018-06-24T16:51:35.508Z,101404.00
2018-06-24T16:54:04.993Z,101405.09
2018-06-24T16:56:33.719Z,101402.27
2018-06-24T16:59:02.434Z,101398.30
2018-06-24T17:01:31.651Z,101401.86
2018-06-24T17:04:00.438Z,101404.44
2018-06-24T17:06:29.251Z,101402.44
2018-06-24T17:08:58.228Z,101403.46
2018-06-24T17:11:26.867Z,101406.61
2018-06-24T17:13:55.588Z,101410.75
2018-06-24T17:16:24.321Z,101410.03
2018-06-24T17:18:53.052Z,101407.59
2018-06-24T17:21:21.688Z,101403.09
2018-06-24T17:23:50.530Z,101402.77
2018-06-24T17:26:19.214Z,101401.12
2018-06-24T17:28:47.950Z,101396.77
2018-06-24T17:31:17.231Z,101401.93
2018-06-24T17:33:46.718Z,101397.10
2018-06-24T17:36:15.463Z,101392.09
2018-06-24T17:38:44.422Z,101398.70
2018-06-24T17:41:14.034Z,101402.04
2018-06-24T17:43:42.671Z,101402.04
2018-06-24T17:46:11.350Z,101391.91
2018-06-24T17:48:40.338Z,101395.94
2018-06-24T17:51:09.020Z,101390.23
2018-06-24T17:53:37.702Z,101380.70
2018-06-24T17:56:06.396Z,101385.05
2018-06-24T17:58:35.038Z,101387.08
2018-06-24T18:01:03.946Z,101390.09
2018-06-24T18:03:32.675Z,101394.95
2018-06-24T18:06:02.706Z,101402.75
2018-06-24T18:08:32.008Z,101398.91
2018-06-24T18:11:01.313Z,101400.76
2018-06-24T18:13:30.108Z,101393.42
2018-06-24T18:15:58.843Z,101400.79
2018-06-24T18:18:27.889Z,101399.30
2018-06-24T18:20:57.250Z,101396.12
2018-06-24T18:23:25.968Z,101391.50
2018-06-24T18:25:55.145Z,101393.20
2018-06-24T18:28:23.761Z,101395.73
2018-06-24T18:30:52.461Z,101393.59
2018-06-24T18:33:21.126Z,101392.78
2018-06-24T18:35:50.104Z,101392.09
2018-06-24T18:38:18.811Z,101397.61
2018-06-24T18:40:47.533Z,101393.88
2018-06-24T18:43:16.561Z,101392.09
2018-06-24T18:45:45.577Z,101387.17
2018-06-24T18:48:14.374Z,101396.27
2018-06-24T18:50:43.049Z,101393.11
2018-06-24T18:53:11.676Z,101391.11
2018-06-24T18:55:40.280Z,101392.60
2018-06-24T18:58:08.921Z,101391.91
2018-06-24T19:00:37.694Z,101388.81
2018-06-24T19:03:06.929Z,101391.77
2018-06-24T19:05:35.524Z,101397.45
2018-06-24T19:08:04.346Z,101395.70
2018-06-24T19:10:33.365Z,101396.80
2018-06-24T19:13:02.347Z,101394.62
2018-06-24T19:15:31.069Z,101400.83
2018-06-24T19:17:59.810Z,101405.33
2018-06-24T19:20:28.874Z,101398.63
2018-06-24T19:22:57.773Z,101399.31
2018-06-24T19:25:27.038Z,101399.97
2018-06-24T19:27:55.657Z,101403.60
2018-06-24T19:30:24.773Z,101410.64
2018-06-24T19:32:53.432Z,101409.36
2018-06-24T19:35:22.125Z,101407.21
2018-06-24T19:37:51.039Z,101408.70
2018-06-24T19:40:20.306Z,101408.52
2018-06-24T19:42:49.206Z,101413.56
2018-06-24T19:45:18.063Z,101409.77
2018-06-24T19:47:46.758Z,101414.16
2018-06-24T19:50:15.776Z,101416.48
2018-06-24T19:52:44.570Z,101420.80
2018-06-24T19:55:13.635Z,101420.45
2018-06-24T19:57:43.426Z,101425.08
2018-06-24T20:00:12.113Z,101425.55
2018-06-24T20:02:40.785Z,101427.40
2018-06-24T20:05:09.556Z,101428.23
2018-06-24T20:07:38.259Z,101432.27
2018-06-24T20:10:06.966Z,101435.22
2018-06-24T20:12:35.837Z,101432.71
2018-06-24T20:15:06.695Z,101431.67
2018-06-24T20:17:35.557Z,101436.05
2018-06-24T20:20:04.894Z,101433.78
2018-06-24T20:22:33.513Z,101438.49
2018-06-24T20:25:02.434Z,101434.86
2018-06-24T20:27:31.149Z,101435.98
2018-06-24T20:29:59.866Z,101430.34
2018-06-24T20:32:28.536Z,101433.36
2018-06-24T20:34:57.431Z,101431.00
2018-06-24T20:37:26.251Z,101431.53
2018-06-24T20:39:54.830Z,101433.59
2018-06-24T20:42:23.849Z,101441.67
2018-06-24T20:44:52.464Z,101438.98
2018-06-24T20:47:21.127Z,101442.00
2018-06-24T20:49:50.632Z,101438.78
2018-06-24T20:52:21.270Z,101441.92
2018-06-24T20:54:49.852Z,101445.59
2018-06-24T20:57:18.810Z,101445.70
2018-06-24T20:59:47.955Z,101448.12
2018-06-24T21:02:16.616Z,101451.91
2018-06-24T21:04:45.234Z,101452.39
2018-06-24T21:07:13.903Z,101453.55
2018-06-24T21:09:42.758Z,101447.95
2018-06-24T21:12:11.990Z,101453.98
2018-06-24T21:14:42.135Z,101448.22
2018-06-24T21:17:13.700Z,101452.42
2018-06-24T21:19:43.099Z,101451.47
2018-06-24T21:22:11.776Z,101452.16
2018-06-24T21:24:41.193Z,101454.84
2018-06-24T21:27:11.129Z,101454.78
2018-06-24T21:29:41.096Z,101455.44
2018-06-24T21:32:09.854Z,101454.75
2018-06-24T21:34:38.779Z,101449.41
2018-06-24T21:37:07.416Z,101451.59
2018-06-24T21:39:36.313Z,101450.73
2018-06-24T21:42:05.905Z,101446.70
2018-06-24T21:44:34.641Z,101447.89
2018-06-24T21:47:03.613Z,101452.93
2018-06-24T21:49:32.581Z,101451.56
2018-06-24T21:52:01.379Z,101448.22
2018-06-24T21:54:29.991Z,101449.72
2018-06-24T21:56:58.634Z,101451.41
2018-06-24T21:59:27.324Z,101450.37
2018-06-24T22:01:55.946Z,101449.33
2018-06-24T22:04:25.192Z,101450.31
2018-06-24T22:06:53.800Z,101452.66
2018-06-24T22:09:23.146Z,101448.70
2018-06-24T22:11:51.824Z,101443.27
2018-06-24T22:14:20.792Z,101443.92
2018-06-24T22:16:49.425Z,101445.92
2018-06-24T22:19:18.104Z,101449.74
2018-06-24T22:21:47.673Z,101443.03
2018-06-24T22:24:16.316Z,101444.58
2018-06-24T22:26:45.717Z,101446.10
2018-06-24T22:29:14.826Z,101439.90
2018-06-24T22:31:43.463Z,101442.26
2018-06-24T22:34:12.120Z,101439.39
2018-06-24T22:36:40.809Z,101438.38
2018-06-24T22:39:11.341Z,101431.67
2018-06-24T22:41:39.957Z,101430.00
2018-06-24T22:44:08.909Z,101431.67
2018-06-24T22:46:37.533Z,101437.03
2018-06-24T22:49:06.452Z,101439.66
2018-06-24T22:51:35.495Z,101445.36
2018-06-24T22:54:04.130Z,101445.36
2018-06-24T22:56:33.077Z,101443.03
2018-06-24T22:59:12.975Z,101446.38
2018-06-24T23:01:41.916Z,101450.25
2018-06-24T23:04:10.774Z,101452.42
2018-06-24T23:06:39.637Z,101451.09
2018-06-24T23:09:09.171Z,101449.74
2018-06-24T23:11:37.930Z,101452.64
2018-06-24T23:14:06.603Z,101456.12
2018-06-24T23:16:35.565Z,101451.30
2018-06-24T23:19:04.225Z,101451.47
2018-06-24T23:21:33.355Z,101450.97
2018-06-24T23:24:01.958Z,101447.12
2018-06-24T23:26:30.791Z,101452.81
2018-06-24T23:29:00.113Z,101451.83
2018-06-24T23:31:28.942Z,101450.48
2018-06-24T23:33:57.541Z,101447.47
2018-06-24T23:36:26.100Z,101450.81
2018-06-24T23:38:55.030Z,101451.65
2018-06-24T23:41:23.894Z,101445.45
2018-06-24T23:43:52.529Z,101454.99
2018-06-24T23:46:21.419Z,101454.78
2018-06-24T23:48:50.049Z,101457.80
2018-06-24T23:51:18.613Z,101459.14
2018-06-24T23:53:47.890Z,101458.95
2018-06-24T23:56:16.463Z,101460.63
2018-06-24T23:58:45.144Z,101458.27
